sensor_id;sensor_type;location;lat;lon;timestamp;pressure;altitude;pressure_sealevel;temperature;humidity
38530;BME280;24301;54.332;48.386;2022-09-09T00:12:34;98801.66;;;8.04;84.74
38530;BME280;24301;54.332;48.386;2022-09-09T00:15:12;98798.22;;;7.97;84.05
38530;BME280;24301;54.332;48.386;2022-09-09T00:18:07;98811.31;;;7.96;84.00
38530;BME280;24301;54.332;48.386;2022-09-09T00:23:12;98812.19;;;7.99;84.55
38530;BME280;24301;54.332;48.386;2022-09-09T00:26:01;98811.28;;;8.00;85.01
38530;BME280;24301;54.332;48.386;2022-09-09T00:28:28;98810.41;;;8.01;84.92
38530;BME280;24301;54.332;48.386;2022-09-09T00:31:17;98813.88;;;8.03;84.88
38530;BME280;24301;54.332;48.386;2022-09-09T00:33:45;98806.06;;;7.99;85.02
38530;BME280;24301;54.332;48.386;2022-09-09T00:36:18;98806.88;;;8.05;84.64
38530;BME280;24301;54.332;48.386;2022-09-09T00:38:52;98804.28;;;8.04;84.95
38530;BME280;24301;54.332;48.386;2022-09-09T00:41:25;98813.88;;;8.07;85.01
38530;BME280;24301;54.332;48.386;2022-09-09T00:44:00;98817.38;;;8.05;85.25
38530;BME280;24301;54.332;48.386;2022-09-09T00:47:16;98815.59;;;8.06;84.56
38530;BME280;24301;54.332;48.386;2022-09-09T00:57:35;98820.91;;;7.92;84.97
38530;BME280;24301;54.332;48.386;2022-09-09T01:00:18;98827.91;;;7.95;84.89
38530;BME280;24301;54.332;48.386;2022-09-09T01:08:01;98820.03;;;7.95;85.19
38530;BME280;24301;54.332;48.386;2022-09-09T01:10:52;98825.22;;;8.01;85.63
38530;BME280;24301;54.332;48.386;2022-09-09T01:13:28;98819.16;;;8.00;85.41
38530;BME280;24301;54.332;48.386;2022-09-09T01:16:04;98825.25;;;7.99;85.29
38530;BME280;24301;54.332;48.386;2022-09-09T01:18:38;98820.03;;;7.99;85.15
38530;BME280;24301;54.332;48.386;2022-09-09T01:24:27;98833.06;;;8.05;85.49
38530;BME280;24301;54.332;48.386;2022-09-09T01:27:17;98822.63;;;8.02;85.44
38530;BME280;24301;54.332;48.386;2022-09-09T01:29:45;98827.84;;;8.02;85.05
38530;BME280;24301;54.332;48.386;2022-09-09T01:32:46;98820.88;;;8.01;85.55
38530;BME280;24301;54.332;48.386;2022-09-09T01:35:29;98828.75;;;8.01;85.38
38530;BME280;24301;54.332;48.386;2022-09-09T01:37:59;98828.75;;;8.01;85.20
38530;BME280;24301;54.332;48.386;2022-09-09T01:40:26;98836.59;;;8.00;85.52
38530;BME280;24301;54.332;48.386;2022-09-09T01:42:53;98829.63;;;7.97;85.43
38530;BME280;24301;54.332;48.386;2022-09-09T01:45:21;98830.53;;;7.96;85.69
38530;BME280;24301;54.332;48.386;2022-09-09T01:47:47;98831.38;;;7.97;85.38
38530;BME280;24301;54.332;48.386;2022-09-09T01:50:32;98830.50;;;7.99;85.67
38530;BME280;24301;54.332;48.386;2022-09-09T01:52:59;98829.59;;;8.03;85.54
38530;BME280;24301;54.332;48.386;2022-09-09T01:55:33;98835.63;;;8.12;85.67
38530;BME280;24301;54.332;48.386;2022-09-09T02:00:33;98829.56;;;8.11;85.19
38530;BME280;24301;54.332;48.386;2022-09-09T02:03:05;98840.84;;;8.16;85.33
38530;BME280;24301;54.332;48.386;2022-09-09T02:08:49;98844.38;;;8.11;85.25
38530;BME280;24301;54.332;48.386;2022-09-09T02:11:18;98836.53;;;8.08;85.21
38530;BME280;24301;54.332;48.386;2022-09-09T02:13:54;98845.25;;;8.08;85.04
38530;BME280;24301;54.332;48.386;2022-09-09T02:16:26;98854.00;;;8.04;85.12
38530;BME280;24301;54.332;48.386;2022-09-09T02:19:08;98854.03;;;8.02;84.99
38530;BME280;24301;54.332;48.386;2022-09-09T02:21:51;98860.97;;;8.07;85.37
38530;BME280;24301;54.332;48.386;2022-09-09T02:24:19;98857.47;;;8.11;85.48
38530;BME280;24301;54.332;48.386;2022-09-09T02:26:54;98854.81;;;8.14;85.33
38530;BME280;24301;54.332;48.386;2022-09-09T02:29:34;98863.50;;;8.19;84.79
38530;BME280;24301;54.332;48.386;2022-09-09T02:32:05;98860.91;;;8.22;84.88
38530;BME280;24301;54.332;48.386;2022-09-09T02:34:37;98846.13;;;8.10;84.85
38530;BME280;24301;54.332;48.386;2022-09-09T02:37:08;98853.97;;;8.12;84.63
38530;BME280;24301;54.332;48.386;2022-09-09T02:39:36;98859.19;;;8.15;84.66
38530;BME280;24301;54.332;48.386;2022-09-09T02:42:04;98859.19;;;8.15;84.48
38530;BME280;24301;54.332;48.386;2022-09-09T02:44:31;98864.38;;;8.18;84.73
38530;BME280;24301;54.332;48.386;2022-09-09T02:50:19;98870.47;;;8.22;84.65
38530;BME280;24301;54.332;48.386;2022-09-09T02:55:58;98877.41;;;8.30;84.35
38530;BME280;24301;54.332;48.386;2022-09-09T02:58:25;98863.44;;;8.31;84.29
38530;BME280;24301;54.332;48.386;2022-09-09T03:01:00;98870.41;;;8.32;84.15
38530;BME280;24301;54.332;48.386;2022-09-09T03:03:29;98873.03;;;8.32;84.16
38530;BME280;24301;54.332;48.386;2022-09-09T03:05:56;98878.25;;;8.36;83.88
38530;BME280;24301;54.332;48.386;2022-09-09T03:08:22;98880.00;;;8.33;84.19
38530;BME280;24301;54.332;48.386;2022-09-09T03:10:49;98878.28;;;8.32;83.92
38530;BME280;24301;54.332;48.386;2022-09-09T03:13:15;98875.66;;;8.34;83.72
38530;BME280;24301;54.332;48.386;2022-09-09T03:15:42;98881.75;;;8.30;83.56
38530;BME280;24301;54.332;48.386;2022-09-09T03:18:13;98885.28;;;8.27;83.30
38530;BME280;24301;54.332;48.386;2022-09-09T03:20:39;98884.38;;;8.30;83.71
38530;BME280;24301;54.332;48.386;2022-09-09T03:23:05;98883.53;;;8.29;83.69
38530;BME280;24301;54.332;48.386;2022-09-09T03:25:31;98884.38;;;8.30;83.52
38530;BME280;24301;54.332;48.386;2022-09-09T03:27:58;98885.22;;;8.37;83.53
38530;BME280;24301;54.332;48.386;2022-09-09T03:30:26;98888.66;;;8.42;83.52
38530;BME280;24301;54.332;48.386;2022-09-09T03:32:55;98880.78;;;8.45;83.35
38530;BME280;24301;54.332;48.386;2022-09-09T03:35:24;98880.66;;;8.67;83.36
38530;BME280;24301;54.332;48.386;2022-09-09T03:37:50;98886.66;;;8.81;82.86
38530;BME280;24301;54.332;48.386;2022-09-09T03:40:16;98898.75;;;8.98;82.46
38530;BME280;24301;54.332;48.386;2022-09-09T03:42:45;98892.53;;;9.06;81.73
38530;BME280;24301;54.332;48.386;2022-09-09T03:45:11;98894.94;;;9.28;81.55
38530;BME280;24301;54.332;48.386;2022-09-09T03:47:39;98894.84;;;9.38;80.81
38530;BME280;24301;54.332;48.386;2022-09-09T03:50:07;98900.75;;;9.55;80.40
38530;BME280;24301;54.332;48.386;2022-09-09T03:52:38;98902.16;;;9.87;79.72
38530;BME280;24301;54.332;48.386;2022-09-09T03:55:07;98897.25;;;10.25;78.88
38530;BME280;24301;54.332;48.386;2022-09-09T03:57:34;98896.19;;;10.40;77.59
38530;BME280;24301;54.332;48.386;2022-09-09T04:00:06;98898.78;;;10.43;76.85
38530;BME280;24301;54.332;48.386;2022-09-09T04:02:42;98900.31;;;10.57;76.74
38530;BME280;24301;54.332;48.386;2022-09-09T04:05:11;98881.78;;;10.64;75.93
38530;BME280;24301;54.332;48.386;2022-09-09T04:07:40;98885.19;;;10.70;75.41
38530;BME280;24301;54.332;48.386;2022-09-09T04:10:07;98900.28;;;10.58;74.54
38530;BME280;24301;54.332;48.386;2022-09-09T04:12:36;98891.41;;;10.66;74.90
38530;BME280;24301;54.332;48.386;2022-09-09T04:15:02;98889.44;;;10.80;74.36
38530;BME280;24301;54.332;48.386;2022-09-09T04:17:30;98890.03;;;10.96;73.93
38530;BME280;24301;54.332;48.386;2022-09-09T04:19:56;98894.09;;;11.14;73.58
38530;BME280;24301;54.332;48.386;2022-09-09T04:22:23;98902.44;;;11.36;72.36
38530;BME280;24301;54.332;48.386;2022-09-09T04:24:49;98902.06;;;11.57;72.07
38530;BME280;24301;54.332;48.386;2022-09-09T04:27:17;98900.19;;;11.63;70.76
38530;BME280;24301;54.332;48.386;2022-09-09T04:29:43;98903.81;;;11.58;70.36
38530;BME280;24301;54.332;48.386;2022-09-09T04:32:09;98910.47;;;11.76;70.54
38530;BME280;24301;54.332;48.386;2022-09-09T04:34:35;98906.06;;;12.19;69.96
38530;BME280;24301;54.332;48.386;2022-09-09T04:37:01;98903.75;;;13.17;68.02
38530;BME280;24301;54.332;48.386;2022-09-09T04:39:27;98915.50;;;13.71;65.43
38530;BME280;24301;54.332;48.386;2022-09-09T04:41:56;98916.28;;;14.63;63.73
38530;BME280;24301;54.332;48.386;2022-09-09T04:44:22;98911.13;;;15.63;60.63
38530;BME280;24301;54.332;48.386;2022-09-09T04:46:48;98912.31;;;16.05;58.80
38530;BME280;24301;54.332;48.386;2022-09-09T04:49:14;98916.09;;;15.98;56.62
38530;BME280;24301;54.332;48.386;2022-09-09T04:51:41;98918.72;;;15.23;57.10
38530;BME280;24301;54.332;48.386;2022-09-09T04:54:08;98912.56;;;14.41;58.76
38530;BME280;24301;54.332;48.386;2022-09-09T04:56:36;98932.66;;;14.18;59.86
38530;BME280;24301;54.332;48.386;2022-09-09T04:59:02;98924.81;;;14.15;59.77
38530;BME280;24301;54.332;48.386;2022-09-09T05:01:39;98923.38;;;14.04;59.91
38530;BME280;24301;54.332;48.386;2022-09-09T05:04:05;98922.06;;;14.18;59.99
38530;BME280;24301;54.332;48.386;2022-09-09T05:06:32;98916.22;;;14.36;59.30
38530;BME280;24301;54.332;48.386;2022-09-09T05:09:00;98920.28;;;14.48;58.88
38530;BME280;24301;54.332;48.386;2022-09-09T05:11:30;98925.56;;;14.77;58.35
38530;BME280;24301;54.332;48.386;2022-09-09T05:14:16;98924.75;;;15.02;57.22
38530;BME280;24301;54.332;48.386;2022-09-09T05:16:44;98925.47;;;15.07;56.65
38530;BME280;24301;54.332;48.386;2022-09-09T05:19:10;98927.06;;;15.38;56.19
38530;BME280;24301;54.332;48.386;2022-09-09T05:21:46;98930.06;;;15.52;55.75
38530;BME280;24301;54.332;48.386;2022-09-09T05:24:14;98928.16;;;15.58;55.40
38530;BME280;24301;54.332;48.386;2022-09-09T05:26:42;98928.78;;;15.39;55.20
38530;BME280;24301;54.332;48.386;2022-09-09T05:29:09;98935.78;;;15.15;55.43
38530;BME280;24301;54.332;48.386;2022-09-09T05:31:35;98938.44;;;14.59;56.26
38530;BME280;24301;54.332;48.386;2022-09-09T05:34:05;98949.50;;;14.14;57.41
38530;BME280;24301;54.332;48.386;2022-09-09T05:36:31;98946.63;;;13.91;58.07
38530;BME280;24301;54.332;48.386;2022-09-09T05:38:56;98947.56;;;13.89;58.56
38530;BME280;24301;54.332;48.386;2022-09-09T05:41:25;98941.94;;;14.01;58.30
38530;BME280;24301;54.332;48.386;2022-09-09T05:43:54;98951.06;;;14.21;57.36
38530;BME280;24301;54.332;48.386;2022-09-09T05:46:23;98959.97;;;14.47;57.02
38530;BME280;24301;54.332;48.386;2022-09-09T05:48:51;98949.50;;;14.44;56.52
38530;BME280;24301;54.332;48.386;2022-09-09T05:51:21;98953.66;;;14.22;56.72
38530;BME280;24301;54.332;48.386;2022-09-09T05:53:49;98957.88;;;14.58;56.73
38530;BME280;24301;54.332;48.386;2022-09-09T05:56:22;98955.22;;;14.87;55.73
38530;BME280;24301;54.332;48.386;2022-09-09T05:58:49;98945.22;;;14.97;55.18
38530;BME280;24301;54.332;48.386;2022-09-09T06:01:20;98959.31;;;14.97;55.02
38530;BME280;24301;54.332;48.386;2022-09-09T06:03:48;98956.63;;;14.70;55.45
38530;BME280;24301;54.332;48.386;2022-09-09T06:06:16;98968.31;;;14.33;55.91
38530;BME280;24301;54.332;48.386;2022-09-09T06:08:44;98964.53;;;14.12;56.74
38530;BME280;24301;54.332;48.386;2022-09-09T06:13:42;98954.78;;;14.44;55.91
38530;BME280;24301;54.332;48.386;2022-09-09T06:16:14;98966.69;;;14.29;55.46
38530;BME280;24301;54.332;48.386;2022-09-09T06:18:42;98965.78;;;13.98;56.05
38530;BME280;24301;54.332;48.386;2022-09-09T06:21:21;98974.69;;;13.62;56.75
38530;BME280;24301;54.332;48.386;2022-09-09T06:23:48;98976.69;;;13.54;57.55
38530;BME280;24301;54.332;48.386;2022-09-09T06:26:17;98973.19;;;13.54;57.55
38530;BME280;24301;54.332;48.386;2022-09-09T06:28:48;98977.13;;;13.72;57.61
38530;BME280;24301;54.332;48.386;2022-09-09T06:31:16;98978.75;;;14.37;56.62
38530;BME280;24301;54.332;48.386;2022-09-09T06:33:43;98970.28;;;15.89;53.90
38530;BME280;24301;54.332;48.386;2022-09-09T06:36:17;98955.78;;;17.14;50.45
38530;BME280;24301;54.332;48.386;2022-09-09T06:38:44;98958.38;;;18.37;47.92
38530;BME280;24301;54.332;48.386;2022-09-09T06:41:14;98967.03;;;18.61;46.40
38530;BME280;24301;54.332;48.386;2022-09-09T06:43:42;98960.81;;;19.34;45.11
38530;BME280;24301;54.332;48.386;2022-09-09T06:46:16;98969.25;;;19.60;43.68
38530;BME280;24301;54.332;48.386;2022-09-09T06:48:43;98957.13;;;21.49;41.63
38530;BME280;24301;54.332;48.386;2022-09-09T06:51:18;98966.06;;;22.51;38.97
38530;BME280;24301;54.332;48.386;2022-09-09T06:53:50;98961.56;;;22.37;38.29
38530;BME280;24301;54.332;48.386;2022-09-09T06:58:56;98962.88;;;19.98;40.84
38530;BME280;24301;54.332;48.386;2022-09-09T07:01:28;98973.16;;;18.81;42.50
38530;BME280;24301;54.332;48.386;2022-09-09T07:03:59;98967.31;;;17.96;44.34
38530;BME280;24301;54.332;48.386;2022-09-09T07:06:29;98974.66;;;16.62;46.33
38530;BME280;24301;54.332;48.386;2022-09-09T07:09:00;98975.75;;;15.34;48.99
38530;BME280;24301;54.332;48.386;2022-09-09T07:11:30;98987.94;;;14.26;52.13
38530;BME280;24301;54.332;48.386;2022-09-09T07:13:58;99008.19;;;13.62;54.38
38530;BME280;24301;54.332;48.386;2022-09-09T07:16:25;98999.44;;;13.23;56.18
38530;BME280;24301;54.332;48.386;2022-09-09T07:18:54;98995.94;;;13.23;56.98
38530;BME280;24301;54.332;48.386;2022-09-09T07:21:25;99002.78;;;13.30;57.34
38530;BME280;24301;54.332;48.386;2022-09-09T07:23:56;99011.03;;;13.54;57.04
38530;BME280;24301;54.332;48.386;2022-09-09T07:26:27;98999.19;;;14.02;56.71
38530;BME280;24301;54.332;48.386;2022-09-09T07:28:54;99010.19;;;15.05;54.61
38530;BME280;24301;54.332;48.386;2022-09-09T07:31:29;99010.66;;;15.18;53.72
38530;BME280;24301;54.332;48.386;2022-09-09T07:33:59;99009.81;;;15.18;53.70
38530;BME280;24301;54.332;48.386;2022-09-09T07:36:46;99000.75;;;14.98;54.16
38530;BME280;24301;54.332;48.386;2022-09-09T07:39:13;99003.91;;;14.51;54.55
38530;BME280;24301;54.332;48.386;2022-09-09T07:41:45;99006.53;;;14.22;55.01
38530;BME280;24301;54.332;48.386;2022-09-09T07:44:18;99014.13;;;15.20;53.81
38530;BME280;24301;54.332;48.386;2022-09-09T07:46:48;99005.53;;;16.17;50.62
38530;BME280;24301;54.332;48.386;2022-09-09T07:49:19;99001.91;;;16.19;49.86
38530;BME280;24301;54.332;48.386;2022-09-09T07:51:46;99003.59;;;15.71;50.16
38530;BME280;24301;54.332;48.386;2022-09-09T07:54:17;99014.91;;;14.96;51.57
38530;BME280;24301;54.332;48.386;2022-09-09T07:56:47;99010.78;;;14.28;52.44
38530;BME280;24301;54.332;48.386;2022-09-09T07:59:13;99017.25;;;13.85;53.52
38530;BME280;24301;54.332;48.386;2022-09-09T08:01:50;99030.53;;;15.05;52.92
38530;BME280;24301;54.332;48.386;2022-09-09T08:04:21;99017.22;;;15.60;51.17
38530;BME280;24301;54.332;48.386;2022-09-09T08:06:53;99024.56;;;14.98;52.08
38530;BME280;24301;54.332;48.386;2022-09-09T08:09:21;99029.53;;;14.19;54.29
38530;BME280;24301;54.332;48.386;2022-09-09T08:11:51;99029.97;;;13.70;56.17
38530;BME280;24301;54.332;48.386;2022-09-09T08:14:17;99029.44;;;13.19;58.23
38530;BME280;24301;54.332;48.386;2022-09-09T08:16:47;99044.53;;;12.75;59.95
38530;BME280;24301;54.332;48.386;2022-09-09T08:19:16;99037.06;;;12.55;60.96
38530;BME280;24301;54.332;48.386;2022-09-09T08:21:44;99040.84;;;12.43;61.61
38530;BME280;24301;54.332;48.386;2022-09-09T08:24:12;99037.06;;;12.55;61.82
38530;BME280;24301;54.332;48.386;2022-09-09T08:26:41;99041.84;;;12.78;61.52
38530;BME280;24301;54.332;48.386;2022-09-09T08:29:10;99042.19;;;13.38;61.46
38530;BME280;24301;54.332;48.386;2022-09-09T08:31:39;99039.31;;;13.84;60.12
38530;BME280;24301;54.332;48.386;2022-09-09T08:34:07;99033.13;;;14.16;59.08
38530;BME280;24301;54.332;48.386;2022-09-09T08:36:37;99039.38;;;14.44;58.35
38530;BME280;24301;54.332;48.386;2022-09-09T08:39:05;99038.75;;;14.35;57.68
38530;BME280;24301;54.332;48.386;2022-09-09T08:50:03;99063.09;;;12.29;62.41
38530;BME280;24301;54.332;48.386;2022-09-09T08:57:47;99052.13;;;12.51;61.49
38530;BME280;24301;54.332;48.386;2022-09-09T09:00:14;99042.19;;;13.02;60.50
38530;BME280;24301;54.332;48.386;2022-09-09T09:05:47;99046.59;;;13.74;57.67
38530;BME280;24301;54.332;48.386;2022-09-09T09:08:36;99061.16;;;13.56;57.48
38530;BME280;24301;54.332;48.386;2022-09-09T09:11:06;99055.16;;;13.49;57.50
38530;BME280;24301;54.332;48.386;2022-09-09T09:13:40;99059.22;;;13.25;57.83
38530;BME280;24301;54.332;48.386;2022-09-09T09:19:20;99059.06;;;12.54;59.10
38530;BME280;24301;54.332;48.386;2022-09-09T09:27:20;99066.72;;;13.05;59.40
38530;BME280;24301;54.332;48.386;2022-09-09T09:29:51;99064.53;;;13.61;57.92
38530;BME280;24301;54.332;48.386;2022-09-09T09:32:21;99075.72;;;14.05;56.92
38530;BME280;24301;54.332;48.386;2022-09-09T09:34:51;99060.97;;;13.97;55.32
38530;BME280;24301;54.332;48.386;2022-09-09T09:37:31;99070.09;;;13.85;55.10
38530;BME280;24301;54.332;48.386;2022-09-09T09:40:19;99081.38;;;13.91;55.29
38530;BME280;24301;54.332;48.386;2022-09-09T09:45:43;99079.84;;;13.83;55.49
38530;BME280;24301;54.332;48.386;2022-09-09T09:48:12;99083.53;;;13.37;56.30
38530;BME280;24301;54.332;48.386;2022-09-09T09:53:24;99085.94;;;13.11;57.01
38530;BME280;24301;54.332;48.386;2022-09-09T09:55:57;99088.00;;;12.98;56.87
38530;BME280;24301;54.332;48.386;2022-09-09T09:58:25;99096.97;;;12.90;57.65
38530;BME280;24301;54.332;48.386;2022-09-09T10:00:53;99100.03;;;13.10;57.25
38530;BME280;24301;54.332;48.386;2022-09-09T10:03:28;99097.06;;;13.25;56.65
38530;BME280;24301;54.332;48.386;2022-09-09T10:05:56;99095.91;;;13.35;56.51
38530;BME280;24301;54.332;48.386;2022-09-09T10:08:24;99094.00;;;13.42;56.30
38530;BME280;24301;54.332;48.386;2022-09-09T10:16:09;99093.94;;;13.07;56.62
38530;BME280;24301;54.332;48.386;2022-09-09T10:19:21;99100.84;;;13.13;56.29
38530;BME280;24301;54.332;48.386;2022-09-09T10:22:13;99105.47;;;13.03;56.26
38530;BME280;24301;54.332;48.386;2022-09-09T10:25:14;99092.59;;;12.89;57.24
38530;BME280;24301;54.332;48.386;2022-09-09T10:27:55;99107.13;;;12.67;57.99
38530;BME280;24301;54.332;48.386;2022-09-09T10:30:58;99106.81;;;12.82;58.31
38530;BME280;24301;54.332;48.386;2022-09-09T10:36:22;99108.16;;;13.02;57.82
38530;BME280;24301;54.332;48.386;2022-09-09T10:38:57;99100.50;;;12.88;58.18
38530;BME280;24301;54.332;48.386;2022-09-09T10:41:37;99116.25;;;12.50;58.82
38530;BME280;24301;54.332;48.386;2022-09-09T10:47:05;99109.84;;;12.18;60.18
38530;BME280;24301;54.332;48.386;2022-09-09T10:50:18;99110.06;;;12.07;59.47
38530;BME280;24301;54.332;48.386;2022-09-09T10:55:24;99114.84;;;12.33;59.70
38530;BME280;24301;54.332;48.386;2022-09-09T10:57:53;99119.75;;;12.52;59.49
38530;BME280;24301;54.332;48.386;2022-09-09T11:00:24;99117.88;;;12.12;59.83
38530;BME280;24301;54.332;48.386;2022-09-09T11:03:17;99134.19;;;11.81;60.66
38530;BME280;24301;54.332;48.386;2022-09-09T11:05:49;99134.19;;;11.81;60.93
38530;BME280;24301;54.332;48.386;2022-09-09T11:08:26;99121.69;;;11.93;60.86
38530;BME280;24301;54.332;48.386;2022-09-09T11:13:34;99132.50;;;12.28;60.57
38530;BME280;24301;54.332;48.386;2022-09-09T11:18:40;99132.94;;;12.52;59.99
38530;BME280;24301;54.332;48.386;2022-09-09T11:21:12;99130.59;;;12.35;60.05
38530;BME280;24301;54.332;48.386;2022-09-09T11:23:48;99141.41;;;12.23;60.30
38530;BME280;24301;54.332;48.386;2022-09-09T11:26:44;99138.75;;;12.23;60.41
38530;BME280;24301;54.332;48.386;2022-09-09T11:32:20;99145.28;;;11.98;60.39
38530;BME280;24301;54.332;48.386;2022-09-09T11:40:23;99150.91;;;11.78;60.17
38530;BME280;24301;54.332;48.386;2022-09-09T11:43:04;99140.53;;;11.69;60.60
38530;BME280;24301;54.332;48.386;2022-09-09T11:45:33;99140.91;;;11.45;60.25
38530;BME280;24301;54.332;48.386;2022-09-09T11:48:02;99141.84;;;11.43;60.38
38530;BME280;24301;54.332;48.386;2022-09-09T11:50:32;99136.69;;;11.33;61.16
38530;BME280;24301;54.332;48.386;2022-09-09T11:53:18;99150.09;;;11.18;61.66
38530;BME280;24301;54.332;48.386;2022-09-09T11:55:46;99156.88;;;11.33;61.88
38530;BME280;24301;54.332;48.386;2022-09-09T12:00:41;99149.88;;;11.32;62.31
38530;BME280;24301;54.332;48.386;2022-09-09T12:06:29;99154.19;;;11.38;61.97
38530;BME280;24301;54.332;48.386;2022-09-09T12:12:06;99153.22;;;11.43;61.48
38530;BME280;24301;54.332;48.386;2022-09-09T12:17:22;99145.13;;;11.56;60.09
38530;BME280;24301;54.332;48.386;2022-09-09T12:28:22;99150.53;;;11.46;59.82
38530;BME280;24301;54.332;48.386;2022-09-09T12:33:39;99154.56;;;11.13;60.57
38530;BME280;24301;54.332;48.386;2022-09-09T12:36:20;99166.69;;;11.21;60.69
38530;BME280;24301;54.332;48.386;2022-09-09T12:38:48;99160.66;;;11.15;60.73
38530;BME280;24301;54.332;48.386;2022-09-09T12:41:20;99158.81;;;11.20;60.42
38530;BME280;24301;54.332;48.386;2022-09-09T12:43:46;99155.44;;;11.10;60.99
38530;BME280;24301;54.332;48.386;2022-09-09T12:46:30;99153.75;;;11.06;61.08
38530;BME280;24301;54.332;48.386;2022-09-09T12:48:57;99180.00;;;11.09;60.61
38530;BME280;24301;54.332;48.386;2022-09-09T12:51:29;99177.53;;;10.98;61.02
38530;BME280;24301;54.332;48.386;2022-09-09T12:53:56;99177.56;;;10.95;61.31
38530;BME280;24301;54.332;48.386;2022-09-09T12:56:33;99191.66;;;10.91;61.80
38530;BME280;24301;54.332;48.386;2022-09-09T12:58:59;99183.78;;;10.89;61.87
38530;BME280;24301;54.332;48.386;2022-09-09T13:01:31;99181.84;;;11.04;61.79
38530;BME280;24301;54.332;48.386;2022-09-09T13:03:59;99179.25;;;10.99;61.56
38530;BME280;24301;54.332;48.386;2022-09-09T13:06:31;99197.63;;;11.04;61.49
38530;BME280;24301;54.332;48.386;2022-09-09T13:08:59;99186.34;;;10.94;61.87
38530;BME280;24301;54.332;48.386;2022-09-09T13:11:40;99188.06;;;10.97;62.09
38530;BME280;24301;54.332;48.386;2022-09-09T13:14:19;99191.59;;;10.94;62.17
38530;BME280;24301;54.332;48.386;2022-09-09T13:16:56;99180.19;;;10.93;62.33
38530;BME280;24301;54.332;48.386;2022-09-09T13:19:22;99188.91;;;10.99;62.51
38530;BME280;24301;54.332;48.386;2022-09-09T13:21:53;99194.25;;;10.94;62.56
38530;BME280;24301;54.332;48.386;2022-09-09T13:24:29;99193.44;;;10.86;62.98
38530;BME280;24301;54.332;48.386;2022-09-09T13:27:03;99201.34;;;10.86;62.79
38530;BME280;24301;54.332;48.386;2022-09-09T13:29:31;99200.44;;;10.88;62.69
38530;BME280;24301;54.332;48.386;2022-09-09T13:32:16;99200.47;;;10.84;62.69
38530;BME280;24301;54.332;48.386;2022-09-09T13:35:03;99194.53;;;10.69;62.77
38530;BME280;24301;54.332;48.386;2022-09-09T13:37:36;99194.53;;;10.69;62.85
38530;BME280;24301;54.332;48.386;2022-09-09T13:40:04;99198.88;;;10.75;62.51
38530;BME280;24301;54.332;48.386;2022-09-09T13:42:34;99206.59;;;10.87;62.26
38530;BME280;24301;54.332;48.386;2022-09-09T13:45:05;99204.94;;;10.80;61.71
38530;BME280;24301;54.332;48.386;2022-09-09T13:47:35;99204.13;;;10.72;61.72
38530;BME280;24301;54.332;48.386;2022-09-09T13:50:24;99209.50;;;10.64;61.90
38530;BME280;24301;54.332;48.386;2022-09-09T13:52:55;99202.69;;;10.44;61.83
38530;BME280;24301;54.332;48.386;2022-09-09T13:55:25;99210.63;;;10.37;62.21
38530;BME280;24301;54.332;48.386;2022-09-09T13:58:02;99218.50;;;10.37;62.52
38530;BME280;24301;54.332;48.386;2022-09-09T14:00:32;99215.09;;;10.28;62.38
38530;BME280;24301;54.332;48.386;2022-09-09T14:02:59;99212.38;;;10.34;62.37
38530;BME280;24301;54.332;48.386;2022-09-09T14:05:28;99225.53;;;10.36;62.58
38530;BME280;24301;54.332;48.386;2022-09-09T14:07:55;99214.19;;;10.29;62.56
38530;BME280;24301;54.332;48.386;2022-09-09T14:10:22;99216.78;;;10.32;62.69
38530;BME280;24301;54.332;48.386;2022-09-09T14:12:48;99220.22;;;10.41;62.20
38530;BME280;24301;54.332;48.386;2022-09-09T14:15:14;99217.59;;;10.38;62.39
38530;BME280;24301;54.332;48.386;2022-09-09T14:17:40;99233.47;;;10.28;62.58
38530;BME280;24301;54.332;48.386;2022-09-09T14:20:07;99219.50;;;10.20;62.86
38530;BME280;24301;54.332;48.386;2022-09-09T14:22:34;99226.63;;;10.09;63.02
38530;BME280;24301;54.332;48.386;2022-09-09T14:24:59;99225.84;;;9.99;63.25
38530;BME280;24301;54.332;48.386;2022-09-09T14:27:25;99230.25;;;9.98;63.39
38530;BME280;24301;54.332;48.386;2022-09-09T14:29:52;99219.72;;;9.98;63.89
38530;BME280;24301;54.332;48.386;2022-09-09T14:32:18;99227.63;;;9.94;64.01
38530;BME280;24301;54.332;48.386;2022-09-09T14:34:44;99230.22;;;9.95;63.97
38530;BME280;24301;54.332;48.386;2022-09-09T14:37:10;99235.50;;;9.94;64.36
38530;BME280;24301;54.332;48.386;2022-09-09T14:39:36;99230.25;;;9.92;64.39
38530;BME280;24301;54.332;48.386;2022-09-09T14:42:02;99234.72;;;9.82;64.83
38530;BME280;24301;54.332;48.386;2022-09-09T14:44:28;99244.31;;;9.85;64.74
38530;BME280;24301;54.332;48.386;2022-09-09T14:46:55;99229.53;;;9.71;65.09
38530;BME280;24301;54.332;48.386;2022-09-09T14:49:21;99240.00;;;9.77;65.21
38530;BME280;24301;54.332;48.386;2022-09-09T14:51:47;99238.31;;;9.69;65.41
38530;BME280;24301;54.332;48.386;2022-09-09T14:54:13;99247.03;;;9.74;65.59
38530;BME280;24301;54.332;48.386;2022-09-09T14:56:40;99249.66;;;9.69;65.83
38530;BME280;24301;54.332;48.386;2022-09-09T14:59:06;99247.06;;;9.66;66.04
38530;BME280;24301;54.332;48.386;2022-09-09T15:01:32;99252.38;;;9.61;66.18
38530;BME280;24301;54.332;48.386;2022-09-09T15:04:00;99262.84;;;9.58;66.35
38530;BME280;24301;54.332;48.386;2022-09-09T15:06:30;99255.91;;;9.51;66.47
38530;BME280;24301;54.332;48.386;2022-09-09T15:08:59;99257.72;;;9.43;66.76
38530;BME280;24301;54.332;48.386;2022-09-09T15:11:27;99266.50;;;9.39;67.16
38530;BME280;24301;54.332;48.386;2022-09-09T15:13:54;99265.63;;;9.35;67.35
38530;BME280;24301;54.332;48.386;2022-09-09T15:16:21;99270.88;;;9.35;67.60
38530;BME280;24301;54.332;48.386;2022-09-09T15:18:51;99276.13;;;9.32;67.64
38530;BME280;24301;54.332;48.386;2022-09-09T15:21:21;99283.13;;;9.33;67.65
38530;BME280;24301;54.332;48.386;2022-09-09T15:23:47;99280.50;;;9.33;67.73